sensor_id;sensor_type;location;lat;lon;timestamp;P1;durP1;ratioP1;P2;durP2;ratioP2
58384;SDS011;44185;47.844;8.966;2022-12-05T00:01:10;16.95;;;7.45;;
58384;SDS011;44185;47.844;8.966;2022-12-05T00:03:38;18.33;;;7.45;;
58384;SDS011;44185;47.844;8.966;2022-12-05T00:06:05;18.50;;;7.93;;
58384;SDS011;44185;47.844;8.966;2022-12-05T00:08:31;20.30;;;7.80;;
58384;SDS011;44185;47.844;8.966;2022-12-05T00:10:56;20.33;;;8.13;;
58384;SDS011;44185;47.844;8.966;2022-12-05T00:13:21;16.45;;;7.35;;
58384;SDS011;44185;47.844;8.966;2022-12-05T00:15:47;20.23;;;7.95;;
58384;SDS011;44185;47.844;8.966;2022-12-05T00:18:12;17.25;;;6.97;;
58384;SDS011;44185;47.844;8.966;2022-12-05T00:20:43;18.88;;;7.90;;
58384;SDS011;44185;47.844;8.966;2022-12-05T00:23:10;16.75;;;5.78;;
58384;SDS011;44185;47.844;8.966;2022-12-05T00:25:36;18.90;;;7.65;;
58384;SDS011;44185;47.844;8.966;2022-12-05T00:28:01;18.20;;;8.05;;
58384;SDS011;44185;47.844;8.966;2022-12-05T00:30:27;24.13;;;8.20;;
58384;SDS011;44185;47.844;8.966;2022-12-05T00:32:52;18.42;;;7.05;;
58384;SDS011;44185;47.844;8.966;2022-12-05T00:35:17;20.83;;;8.20;;
58384;SDS011;44185;47.844;8.966;2022-12-05T00:37:43;19.73;;;7.80;;
58384;SDS011;44185;47.844;8.966;2022-12-05T00:40:10;17.63;;;7.50;;
58384;SDS011;44185;47.844;8.966;2022-12-05T00:42:35;18.90;;;7.68;;
58384;SDS011;44185;47.844;8.966;2022-12-05T00:45:01;15.95;;;7.28;;
58384;SDS011;44185;47.844;8.966;2022-12-05T00:47:27;16.25;;;7.68;;
58384;SDS011;44185;47.844;8.966;2022-12-05T00:49:52;19.58;;;7.65;;
58384;SDS011;44185;47.844;8.966;2022-12-05T00:52:17;18.38;;;8.13;;
58384;SDS011;44185;47.844;8.966;2022-12-05T00:54:45;20.60;;;7.53;;
58384;SDS011;44185;47.844;8.966;2022-12-05T00:57:12;15.05;;;6.45;;
58384;SDS011;44185;47.844;8.966;2022-12-05T00:59:38;17.33;;;7.22;;
58384;SDS011;44185;47.844;8.966;2022-12-05T01:02:04;19.52;;;7.03;;
58384;SDS011;44185;47.844;8.966;2022-12-05T01:04:29;21.40;;;7.82;;
58384;SDS011;44185;47.844;8.966;2022-12-05T01:06:56;18.88;;;7.30;;
58384;SDS011;44185;47.844;8.966;2022-12-05T01:09:22;17.30;;;7.10;;
58384;SDS011;44185;47.844;8.966;2022-12-05T01:11:48;13.52;;;6.15;;
58384;SDS011;44185;47.844;8.966;2022-12-05T01:14:16;17.73;;;7.10;;
58384;SDS011;44185;47.844;8.966;2022-12-05T01:16:44;18.77;;;7.00;;
58384;SDS011;44185;47.844;8.966;2022-12-05T01:19:13;19.13;;;8.05;;
58384;SDS011;44185;47.844;8.966;2022-12-05T01:21:44;18.20;;;7.43;;
58384;SDS011;44185;47.844;8.966;2022-12-05T01:24:10;18.77;;;7.30;;
58384;SDS011;44185;47.844;8.966;2022-12-05T01:26:39;25.40;;;8.82;;
58384;SDS011;44185;47.844;8.966;2022-12-05T01:29:06;16.48;;;7.20;;
58384;SDS011;44185;47.844;8.966;2022-12-05T01:31:34;21.50;;;8.50;;
58384;SDS011;44185;47.844;8.966;2022-12-05T01:34:01;22.23;;;8.70;;
58384;SDS011;44185;47.844;8.966;2022-12-05T01:36:28;16.83;;;7.30;;
58384;SDS011;44185;47.844;8.966;2022-12-05T01:38:54;21.13;;;7.82;;
58384;SDS011;44185;47.844;8.966;2022-12-05T01:41:21;18.98;;;8.05;;
58384;SDS011;44185;47.844;8.966;2022-12-05T01:43:52;22.20;;;7.75;;
58384;SDS011;44185;47.844;8.966;2022-12-05T01:46:18;22.05;;;8.27;;
58384;SDS011;44185;47.844;8.966;2022-12-05T01:48:45;19.40;;;8.27;;
58384;SDS011;44185;47.844;8.966;2022-12-05T01:51:11;20.55;;;8.50;;
58384;SDS011;44185;47.844;8.966;2022-12-05T01:53:37;19.58;;;8.25;;
58384;SDS011;44185;47.844;8.966;2022-12-05T01:56:02;23.58;;;8.32;;
58384;SDS011;44185;47.844;8.966;2022-12-05T01:58:29;23.42;;;8.77;;
58384;SDS011;44185;47.844;8.966;2022-12-05T02:00:58;22.33;;;8.15;;
58384;SDS011;44185;47.844;8.966;2022-12-05T02:03:24;23.25;;;8.32;;
58384;SDS011;44185;47.844;8.966;2022-12-05T02:05:51;20.65;;;8.27;;
58384;SDS011;44185;47.844;8.966;2022-12-05T02:08:19;20.63;;;8.50;;
58384;SDS011;44185;47.844;8.966;2022-12-05T02:10:48;20.88;;;7.93;;
58384;SDS011;44185;47.844;8.966;2022-12-05T02:13:29;19.13;;;7.65;;
58384;SDS011;44185;47.844;8.966;2022-12-05T02:16:01;22.98;;;8.05;;
58384;SDS011;44185;47.844;8.966;2022-12-05T02:18:34;19.63;;;7.82;;
58384;SDS011;44185;47.844;8.966;2022-12-05T02:24:02;17.10;;;7.03;;
58384;SDS011;44185;47.844;8.966;2022-12-05T02:26:49;19.80;;;8.38;;
58384;SDS011;44185;47.844;8.966;2022-12-05T02:32:12;19.67;;;7.97;;
58384;SDS011;44185;47.844;8.966;2022-12-05T02:34:46;18.88;;;7.90;;
58384;SDS011;44185;47.844;8.966;2022-12-05T02:37:22;23.92;;;8.02;;
58384;SDS011;44185;47.844;8.966;2022-12-05T02:39:53;23.33;;;8.13;;
58384;SDS011;44185;47.844;8.966;2022-12-05T02:42:26;21.85;;;8.20;;
58384;SDS011;44185;47.844;8.966;2022-12-05T02:44:57;23.88;;;9.00;;
58384;SDS011;44185;47.844;8.966;2022-12-05T02:47:26;20.40;;;7.07;;
58384;SDS011;44185;47.844;8.966;2022-12-05T02:49:55;22.58;;;9.63;;
58384;SDS011;44185;47.844;8.966;2022-12-05T02:52:22;20.52;;;7.85;;
58384;SDS011;44185;47.844;8.966;2022-12-05T02:54:50;20.70;;;8.45;;
58384;SDS011;44185;47.844;8.966;2022-12-05T02:57:18;22.07;;;8.10;;
58384;SDS011;44185;47.844;8.966;2022-12-05T02:59:45;22.80;;;8.60;;
58384;SDS011;44185;47.844;8.966;2022-12-05T03:02:21;21.18;;;8.38;;
58384;SDS011;44185;47.844;8.966;2022-12-05T03:04:48;22.30;;;8.18;;
58384;SDS011;44185;47.844;8.966;2022-12-05T03:07:14;17.75;;;7.18;;
58384;SDS011;44185;47.844;8.966;2022-12-05T03:09:44;20.90;;;8.35;;
58384;SDS011;44185;47.844;8.966;2022-12-05T03:12:14;23.33;;;8.80;;
58384;SDS011;44185;47.844;8.966;2022-12-05T03:14:45;21.27;;;8.02;;
58384;SDS011;44185;47.844;8.966;2022-12-05T03:17:13;21.05;;;8.05;;
58384;SDS011;44185;47.844;8.966;2022-12-05T03:19:43;19.80;;;8.97;;
58384;SDS011;44185;47.844;8.966;2022-12-05T03:22:15;20.83;;;7.65;;
58384;SDS011;44185;47.844;8.966;2022-12-05T03:24:44;23.17;;;8.35;;
58384;SDS011;44185;47.844;8.966;2022-12-05T03:27:11;19.08;;;8.07;;
58384;SDS011;44185;47.844;8.966;2022-12-05T03:29:45;15.98;;;7.25;;
58384;SDS011;44185;47.844;8.966;2022-12-05T03:32:18;21.08;;;8.48;;
58384;SDS011;44185;47.844;8.966;2022-12-05T03:34:51;21.15;;;8.90;;
58384;SDS011;44185;47.844;8.966;2022-12-05T03:37:25;22.42;;;9.02;;
58384;SDS011;44185;47.844;8.966;2022-12-05T03:40:01;21.10;;;8.75;;
58384;SDS011;44185;47.844;8.966;2022-12-05T03:42:31;27.33;;;9.55;;
58384;SDS011;44185;47.844;8.966;2022-12-05T03:44:59;23.45;;;9.52;;
58384;SDS011;44185;47.844;8.966;2022-12-05T03:47:31;20.20;;;8.43;;
58384;SDS011;44185;47.844;8.966;2022-12-05T03:50:05;21.67;;;8.23;;
58384;SDS011;44185;47.844;8.966;2022-12-05T03:52:38;20.45;;;8.73;;
58384;SDS011;44185;47.844;8.966;2022-12-05T03:55:09;21.55;;;9.23;;
58384;SDS011;44185;47.844;8.966;2022-12-05T03:57:37;23.27;;;9.32;;
58384;SDS011;44185;47.844;8.966;2022-12-05T04:00:09;19.33;;;8.00;;
58384;SDS011;44185;47.844;8.966;2022-12-05T04:05:09;18.58;;;7.95;;
58384;SDS011;44185;47.844;8.966;2022-12-05T04:07:39;20.55;;;8.38;;
58384;SDS011;44185;47.844;8.966;2022-12-05T04:10:08;20.75;;;9.15;;
58384;SDS011;44185;47.844;8.966;2022-12-05T04:12:39;23.33;;;9.00;;
58384;SDS011;44185;47.844;8.966;2022-12-05T04:15:09;20.77;;;8.38;;
58384;SDS011;44185;47.844;8.966;2022-12-05T04:17:41;25.08;;;8.48;;
58384;SDS011;44185;47.844;8.966;2022-12-05T04:20:12;26.45;;;9.25;;
58384;SDS011;44185;47.844;8.966;2022-12-05T04:22:41;21.25;;;8.18;;
58384;SDS011;44185;47.844;8.966;2022-12-05T04:25:09;20.65;;;8.25;;
58384;SDS011;44185;47.844;8.966;2022-12-05T04:27:37;21.55;;;8.77;;
58384;SDS011;44185;47.844;8.966;2022-12-05T04:30:09;22.05;;;8.75;;
58384;SDS011;44185;47.844;8.966;2022-12-05T04:32:39;19.10;;;8.57;;
58384;SDS011;44185;47.844;8.966;2022-12-05T04:35:12;18.52;;;7.88;;
58384;SDS011;44185;47.844;8.966;2022-12-05T04:37:41;18.23;;;7.85;;
58384;SDS011;44185;47.844;8.966;2022-12-05T04:40:11;21.38;;;7.90;;
58384;SDS011;44185;47.844;8.966;2022-12-05T04:42:41;17.83;;;8.27;;
58384;SDS011;44185;47.844;8.966;2022-12-05T04:45:09;20.55;;;8.18;;
58384;SDS011;44185;47.844;8.966;2022-12-05T04:47:38;20.17;;;8.55;;
58384;SDS011;44185;47.844;8.966;2022-12-05T04:50:08;21.83;;;9.63;;
58384;SDS011;44185;47.844;8.966;2022-12-05T04:52:38;24.42;;;10.55;;
58384;SDS011;44185;47.844;8.966;2022-12-05T04:55:06;18.73;;;9.05;;
58384;SDS011;44185;47.844;8.966;2022-12-05T04:57:35;21.38;;;9.80;;
58384;SDS011;44185;47.844;8.966;2022-12-05T05:00:05;21.05;;;8.63;;
58384;SDS011;44185;47.844;8.966;2022-12-05T05:02:32;20.25;;;9.00;;
58384;SDS011;44185;47.844;8.966;2022-12-05T05:05:06;22.27;;;8.95;;
58384;SDS011;44185;47.844;8.966;2022-12-05T05:07:42;19.08;;;8.18;;
58384;SDS011;44185;47.844;8.966;2022-12-05T05:10:09;22.30;;;8.68;;
58384;SDS011;44185;47.844;8.966;2022-12-05T05:12:38;22.60;;;8.75;;
58384;SDS011;44185;47.844;8.966;2022-12-05T05:15:04;17.65;;;7.90;;
58384;SDS011;44185;47.844;8.966;2022-12-05T05:17:30;18.73;;;7.60;;
58384;SDS011;44185;47.844;8.966;2022-12-05T05:19:55;20.83;;;8.15;;
58384;SDS011;44185;47.844;8.966;2022-12-05T05:22:21;19.27;;;7.32;;
58384;SDS011;44185;47.844;8.966;2022-12-05T05:24:47;19.60;;;8.25;;
58384;SDS011;44185;47.844;8.966;2022-12-05T05:27:13;17.17;;;7.57;;
58384;SDS011;44185;47.844;8.966;2022-12-05T05:29:38;20.00;;;8.63;;
58384;SDS011;44185;47.844;8.966;2022-12-05T05:32:04;19.83;;;8.23;;
58384;SDS011;44185;47.844;8.966;2022-12-05T05:34:29;19.95;;;9.27;;
58384;SDS011;44185;47.844;8.966;2022-12-05T05:36:55;22.77;;;9.73;;
58384;SDS011;44185;47.844;8.966;2022-12-05T05:39:20;21.05;;;8.82;;
58384;SDS011;44185;47.844;8.966;2022-12-05T05:41:47;20.10;;;8.38;;
58384;SDS011;44185;47.844;8.966;2022-12-05T05:44:12;20.63;;;8.05;;
58384;SDS011;44185;47.844;8.966;2022-12-05T05:46:38;22.65;;;8.20;;
58384;SDS011;44185;47.844;8.966;2022-12-05T05:49:03;19.85;;;8.85;;
58384;SDS011;44185;47.844;8.966;2022-12-05T05:51:29;22.55;;;8.45;;
58384;SDS011;44185;47.844;8.966;2022-12-05T05:53:55;22.67;;;8.75;;
58384;SDS011;44185;47.844;8.966;2022-12-05T05:56:21;22.73;;;9.20;;
58384;SDS011;44185;47.844;8.966;2022-12-05T05:58:53;23.23;;;10.02;;
58384;SDS011;44185;47.844;8.966;2022-12-05T06:01:19;21.40;;;9.38;;
58384;SDS011;44185;47.844;8.966;2022-12-05T06:03:45;19.75;;;9.32;;
58384;SDS011;44185;47.844;8.966;2022-12-05T06:06:11;23.83;;;9.32;;
58384;SDS011;44185;47.844;8.966;2022-12-05T06:08:40;21.98;;;9.07;;
58384;SDS011;44185;47.844;8.966;2022-12-05T06:11:08;22.97;;;8.83;;
58384;SDS011;44185;47.844;8.966;2022-12-05T06:13:35;20.52;;;8.18;;
58384;SDS011;44185;47.844;8.966;2022-12-05T06:16:03;22.58;;;9.23;;
58384;SDS011;44185;47.844;8.966;2022-12-05T06:18:28;22.70;;;8.18;;
58384;SDS011;44185;47.844;8.966;2022-12-05T06:20:54;19.70;;;7.93;;
58384;SDS011;44185;47.844;8.966;2022-12-05T06:23:21;21.30;;;9.85;;
58384;SDS011;44185;47.844;8.966;2022-12-05T06:25:48;20.48;;;8.63;;
58384;SDS011;44185;47.844;8.966;2022-12-05T06:28:15;20.85;;;9.02;;
58384;SDS011;44185;47.844;8.966;2022-12-05T06:30:40;22.73;;;9.07;;
58384;SDS011;44185;47.844;8.966;2022-12-05T06:33:07;26.20;;;9.48;;
58384;SDS011;44185;47.844;8.966;2022-12-05T06:35:33;21.75;;;8.88;;
58384;SDS011;44185;47.844;8.966;2022-12-05T06:37:58;20.30;;;8.90;;
58384;SDS011;44185;47.844;8.966;2022-12-05T06:40:24;18.42;;;8.10;;
58384;SDS011;44185;47.844;8.966;2022-12-05T06:42:49;19.00;;;8.25;;
58384;SDS011;44185;47.844;8.966;2022-12-05T06:45:14;20.52;;;8.82;;
58384;SDS011;44185;47.844;8.966;2022-12-05T06:47:40;21.27;;;8.57;;
58384;SDS011;44185;47.844;8.966;2022-12-05T06:50:08;21.85;;;8.27;;
58384;SDS011;44185;47.844;8.966;2022-12-05T06:52:33;20.15;;;9.30;;
58384;SDS011;44185;47.844;8.966;2022-12-05T06:54:59;17.52;;;7.20;;
58384;SDS011;44185;47.844;8.966;2022-12-05T06:57:24;22.20;;;8.40;;
58384;SDS011;44185;47.844;8.966;2022-12-05T06:59:52;20.70;;;8.07;;
58384;SDS011;44185;47.844;8.966;2022-12-05T07:02:17;19.58;;;7.82;;
58384;SDS011;44185;47.844;8.966;2022-12-05T07:04:43;21.17;;;8.30;;
58384;SDS011;44185;47.844;8.966;2022-12-05T07:07:09;21.33;;;8.82;;
58384;SDS011;44185;47.844;8.966;2022-12-05T07:09:35;22.45;;;9.80;;
58384;SDS011;44185;47.844;8.966;2022-12-05T07:12:00;21.33;;;8.77;;
58384;SDS011;44185;47.844;8.966;2022-12-05T07:14:26;20.42;;;8.57;;
58384;SDS011;44185;47.844;8.966;2022-12-05T07:16:51;20.73;;;7.93;;
58384;SDS011;44185;47.844;8.966;2022-12-05T07:19:17;19.67;;;7.97;;
58384;SDS011;44185;47.844;8.966;2022-12-05T07:21:42;22.58;;;8.73;;
58384;SDS011;44185;47.844;8.966;2022-12-05T07:24:09;21.05;;;8.45;;
58384;SDS011;44185;47.844;8.966;2022-12-05T07:26:35;21.20;;;8.98;;
58384;SDS011;44185;47.844;8.966;2022-12-05T07:29:00;23.17;;;9.45;;
58384;SDS011;44185;47.844;8.966;2022-12-05T07:31:25;19.20;;;8.63;;
58384;SDS011;44185;47.844;8.966;2022-12-05T07:33:51;22.45;;;9.20;;
58384;SDS011;44185;47.844;8.966;2022-12-05T07:36:17;25.55;;;10.38;;
58384;SDS011;44185;47.844;8.966;2022-12-05T07:38:44;18.75;;;8.32;;
58384;SDS011;44185;47.844;8.966;2022-12-05T07:41:13;24.23;;;9.35;;
58384;SDS011;44185;47.844;8.966;2022-12-05T07:43:41;23.13;;;9.00;;
58384;SDS011;44185;47.844;8.966;2022-12-05T07:46:07;20.48;;;9.20;;
58384;SDS011;44185;47.844;8.966;2022-12-05T07:48:35;24.27;;;9.85;;
58384;SDS011;44185;47.844;8.966;2022-12-05T07:51:00;24.80;;;10.82;;
58384;SDS011;44185;47.844;8.966;2022-12-05T07:53:27;23.17;;;10.50;;
58384;SDS011;44185;47.844;8.966;2022-12-05T07:55:54;23.05;;;10.63;;
58384;SDS011;44185;47.844;8.966;2022-12-05T07:58:20;28.95;;;13.93;;
58384;SDS011;44185;47.844;8.966;2022-12-05T08:00:46;28.02;;;13.32;;
58384;SDS011;44185;47.844;8.966;2022-12-05T08:03:11;27.38;;;10.75;;
58384;SDS011;44185;47.844;8.966;2022-12-05T08:05:37;26.73;;;11.07;;
58384;SDS011;44185;47.844;8.966;2022-12-05T08:08:02;26.67;;;11.48;;
58384;SDS011;44185;47.844;8.966;2022-12-05T08:10:28;22.77;;;11.32;;
58384;SDS011;44185;47.844;8.966;2022-12-05T08:12:53;21.48;;;8.43;;
58384;SDS011;44185;47.844;8.966;2022-12-05T08:15:20;19.20;;;7.70;;
58384;SDS011;44185;47.844;8.966;2022-12-05T08:17:45;21.40;;;9.05;;
58384;SDS011;44185;47.844;8.966;2022-12-05T08:20:11;21.70;;;9.18;;
58384;SDS011;44185;47.844;8.966;2022-12-05T08:22:37;16.80;;;7.70;;
58384;SDS011;44185;47.844;8.966;2022-12-05T08:25:03;17.02;;;7.32;;
58384;SDS011;44185;47.844;8.966;2022-12-05T08:27:28;18.35;;;8.05;;
58384;SDS011;44185;47.844;8.966;2022-12-05T08:29:54;20.23;;;7.72;;
58384;SDS011;44185;47.844;8.966;2022-12-05T08:32:21;21.00;;;8.75;;
58384;SDS011;44185;47.844;8.966;2022-12-05T08:34:46;20.73;;;8.73;;
58384;SDS011;44185;47.844;8.966;2022-12-05T08:37:12;20.77;;;9.40;;
58384;SDS011;44185;47.844;8.966;2022-12-05T08:39:37;20.17;;;9.55;;
58384;SDS011;44185;47.844;8.966;2022-12-05T08:42:02;22.05;;;9.57;;
58384;SDS011;44185;47.844;8.966;2022-12-05T08:44:28;18.52;;;8.85;;
58384;SDS011;44185;47.844;8.966;2022-12-05T08:46:53;21.85;;;8.60;;
58384;SDS011;44185;47.844;8.966;2022-12-05T08:49:20;23.00;;;9.02;;
58384;SDS011;44185;47.844;8.966;2022-12-05T08:51:46;33.30;;;14.40;;
58384;SDS011;44185;47.844;8.966;2022-12-05T08:54:11;34.92;;;16.42;;
58384;SDS011;44185;47.844;8.966;2022-12-05T08:56:37;24.42;;;10.93;;
58384;SDS011;44185;47.844;8.966;2022-12-05T08:59:02;23.83;;;10.90;;
58384;SDS011;44185;47.844;8.966;2022-12-05T09:01:28;21.45;;;9.23;;
58384;SDS011;44185;47.844;8.966;2022-12-05T09:03:54;22.75;;;9.82;;
58384;SDS011;44185;47.844;8.966;2022-12-05T09:06:22;23.35;;;9.90;;
58384;SDS011;44185;47.844;8.966;2022-12-05T09:08:52;20.52;;;9.40;;
58384;SDS011;44185;47.844;8.966;2022-12-05T09:11:19;17.45;;;7.35;;
58384;SDS011;44185;47.844;8.966;2022-12-05T09:13:46;17.80;;;7.60;;
58384;SDS011;44185;47.844;8.966;2022-12-05T09:16:12;18.73;;;7.15;;
58384;SDS011;44185;47.844;8.966;2022-12-05T09:18:40;13.48;;;6.35;;
58384;SDS011;44185;47.844;8.966;2022-12-05T09:21:05;14.77;;;6.65;;
58384;SDS011;44185;47.844;8.966;2022-12-05T09:23:33;18.63;;;6.95;;
58384;SDS011;44185;47.844;8.966;2022-12-05T09:25:59;14.18;;;5.68;;
58384;SDS011;44185;47.844;8.966;2022-12-05T09:28:24;15.77;;;6.70;;
58384;SDS011;44185;47.844;8.966;2022-12-05T09:30:54;16.23;;;6.60;;
58384;SDS011;44185;47.844;8.966;2022-12-05T09:33:20;15.67;;;6.87;;
58384;SDS011;44185;47.844;8.966;2022-12-05T09:35:45;14.18;;;5.95;;
58384;SDS011;44185;47.844;8.966;2022-12-05T09:38:11;12.95;;;5.70;;
58384;SDS011;44185;47.844;8.966;2022-12-05T09:40:39;11.90;;;5.40;;
58384;SDS011;44185;47.844;8.966;2022-12-05T09:43:06;12.32;;;5.25;;
58384;SDS011;44185;47.844;8.966;2022-12-05T09:45:37;11.82;;;4.75;;
58384;SDS011;44185;47.844;8.966;2022-12-05T09:48:09;9.43;;;4.53;;
58384;SDS011;44185;47.844;8.966;2022-12-05T09:50:43;10.85;;;4.50;;
58384;SDS011;44185;47.844;8.966;2022-12-05T09:53:12;9.63;;;4.72;;
58384;SDS011;44185;47.844;8.966;2022-12-05T09:55:48;12.52;;;4.93;;
58384;SDS011;44185;47.844;8.966;2022-12-05T09:58:21;12.73;;;5.05;;
58384;SDS011;44185;47.844;8.966;2022-12-05T10:00:54;14.00;;;5.00;;
58384;SDS011;44185;47.844;8.966;2022-12-05T10:03:28;11.32;;;4.65;;
58384;SDS011;44185;47.844;8.966;2022-12-05T10:06:05;14.90;;;6.47;;
58384;SDS011;44185;47.844;8.966;2022-12-05T10:08:43;16.65;;;7.28;;
58384;SDS011;44185;47.844;8.966;2022-12-05T10:11:31;16.58;;;8.13;;
58384;SDS011;44185;47.844;8.966;2022-12-05T10:14:03;14.55;;;5.80;;
58384;SDS011;44185;47.844;8.966;2022-12-05T10:16:35;11.48;;;5.55;;
58384;SDS011;44185;47.844;8.966;2022-12-05T10:19:05;10.43;;;4.88;;
58384;SDS011;44185;47.844;8.966;2022-12-05T10:21:38;10.93;;;5.07;;
58384;SDS011;44185;47.844;8.966;2022-12-05T10:24:12;12.90;;;5.50;;
58384;SDS011;44185;47.844;8.966;2022-12-05T10:26:42;12.53;;;6.20;;
58384;SDS011;44185;47.844;8.966;2022-12-05T10:29:11;14.23;;;7.30;;
58384;SDS011;44185;47.844;8.966;2022-12-05T10:31:47;15.75;;;7.43;;
58384;SDS011;44185;47.844;8.966;2022-12-05T10:34:17;13.15;;;4.93;;
58384;SDS011;44185;47.844;8.966;2022-12-05T10:36:54;10.50;;;4.60;;
58384;SDS011;44185;47.844;8.966;2022-12-05T10:39:24;9.25;;;4.55;;
58384;SDS011;44185;47.844;8.966;2022-12-05T10:41:51;8.75;;;4.18;;
58384;SDS011;44185;47.844;8.966;2022-12-05T10:44:16;9.43;;;4.10;;
58384;SDS011;44185;47.844;8.966;2022-12-05T10:46:42;10.88;;;4.55;;
58384;SDS011;44185;47.844;8.966;2022-12-05T10:49:09;14.27;;;5.15;;
58384;SDS011;44185;47.844;8.966;2022-12-05T10:51:35;12.07;;;5.63;;
58384;SDS011;44185;47.844;8.966;2022-12-05T10:54:04;15.40;;;6.78;;
58384;SDS011;44185;47.844;8.966;2022-12-05T10:56:40;13.57;;;6.43;;
58384;SDS011;44185;47.844;8.966;2022-12-05T10:59:09;13.02;;;6.43;;
58384;SDS011;44185;47.844;8.966;2022-12-05T11:01:36;11.13;;;4.07;;
58384;SDS011;44185;47.844;8.966;2022-12-05T11:04:04;11.75;;;5.32;;
58384;SDS011;44185;47.844;8.966;2022-12-05T11:06:34;11.18;;;4.90;;
58384;SDS011;44185;47.844;8.966;2022-12-05T11:09:02;11.52;;;5.03;;
58384;SDS011;44185;47.844;8.966;2022-12-05T11:11:29;8.20;;;3.70;;
58384;SDS011;44185;47.844;8.966;2022-12-05T11:13:58;4.78;;;3.15;;
58384;SDS011;44185;47.844;8.966;2022-12-05T11:16:27;5.78;;;2.95;;
58384;SDS011;44185;47.844;8.966;2022-12-05T11:18:54;4.63;;;2.87;;
58384;SDS011;44185;47.844;8.966;2022-12-05T11:21:20;5.05;;;2.95;;
58384;SDS011;44185;47.844;8.966;2022-12-05T11:23:45;7.55;;;3.95;;
58384;SDS011;44185;47.844;8.966;2022-12-05T11:26:18;6.57;;;2.60;;
58384;SDS011;44185;47.844;8.966;2022-12-05T11:28:57;5.70;;;3.30;;
58384;SDS011;44185;47.844;8.966;2022-12-05T11:31:25;6.35;;;3.35;;
58384;SDS011;44185;47.844;8.966;2022-12-05T11:34:00;5.65;;;3.42;;
58384;SDS011;44185;47.844;8.966;2022-12-05T11:36:38;6.28;;;2.70;;
58384;SDS011;44185;47.844;8.966;2022-12-05T11:39:07;5.32;;;3.28;;
58384;SDS011;44185;47.844;8.966;2022-12-05T11:41:38;6.28;;;3.70;;
58384;SDS011;44185;47.844;8.966;2022-12-05T11:44:38;6.85;;;3.15;;
58384;SDS011;44185;47.844;8.966;2022-12-05T11:47:26;6.40;;;3.13;;
58384;SDS011;44185;47.844;8.966;2022-12-05T11:50:08;4.65;;;2.58;;
58384;SDS011;44185;47.844;8.966;2022-12-05T11:52:49;4.77;;;2.63;;
58384;SDS011;44185;47.844;8.966;2022-12-05T11:55:20;5.55;;;3.13;;
58384;SDS011;44185;47.844;8.966;2022-12-05T11:57:57;6.55;;;3.67;;
58384;SDS011;44185;47.844;8.966;2022-12-05T12:00:32;5.20;;;3.13;;
58384;SDS011;44185;47.844;8.966;2022-12-05T12:03:16;5.63;;;3.15;;
58384;SDS011;44185;47.844;8.966;2022-12-05T12:06:00;6.13;;;3.15;;
58384;SDS011;44185;47.844;8.966;2022-12-05T12:08:41;5.95;;;3.53;;
58384;SDS011;44185;47.844;8.966;2022-12-05T12:11:18;5.60;;;3.28;;
58384;SDS011;44185;47.844;8.966;2022-12-05T12:13:53;5.88;;;3.30;;
58384;SDS011;44185;47.844;8.966;2022-12-05T12:16:27;3.58;;;2.83;;
58384;SDS011;44185;47.844;8.966;2022-12-05T12:19:11;5.82;;;3.67;;
58384;SDS011;44185;47.844;8.966;2022-12-05T12:21:58;5.78;;;3.17;;
58384;SDS011;44185;47.844;8.966;2022-12-05T12:24:41;40.88;;;19.92;;
58384;SDS011;44185;47.844;8.966;2022-12-05T12:27:31;18.60;;;7.95;;
58384;SDS011;44185;47.844;8.966;2022-12-05T12:30:10;9.45;;;4.78;;
58384;SDS011;44185;47.844;8.966;2022-12-05T12:32:41;15.00;;;5.82;;
58384;SDS011;44185;47.844;8.966;2022-12-05T12:35:20;9.52;;;4.88;;
58384;SDS011;44185;47.844;8.966;2022-12-05T12:37:55;5.43;;;3.22;;
58384;SDS011;44185;47.844;8.966;2022-12-05T12:40:33;8.07;;;4.07;;
58384;SDS011;44185;47.844;8.966;2022-12-05T12:43:04;8.73;;;3.75;;
58384;SDS011;44185;47.844;8.966;2022-12-05T12:45:39;6.35;;;3.42;;
58384;SDS011;44185;47.844;8.966;2022-12-05T12:48:19;7.82;;;4.10;;
58384;SDS011;44185;47.844;8.966;2022-12-05T12:50:58;7.40;;;3.45;;
58384;SDS011;44185;47.844;8.966;2022-12-05T12:53:41;6.40;;;3.75;;
58384;SDS011;44185;47.844;8.966;2022-12-05T12:56:26;8.82;;;4.13;;
58384;SDS011;44185;47.844;8.966;2022-12-05T12:59:03;5.40;;;3.60;;
58384;SDS011;44185;47.844;8.966;2022-12-05T13:01:42;8.13;;;3.95;;
58384;SDS011;44185;47.844;8.966;2022-12-05T13:04:13;8.00;;;4.00;;
58384;SDS011;44185;47.844;8.966;2022-12-05T13:06:43;5.87;;;3.50;;
58384;SDS011;44185;47.844;8.966;2022-12-05T13:09:13;6.38;;;3.60;;
58384;SDS011;44185;47.844;8.966;2022-12-05T13:11:46;7.28;;;3.40;;
58384;SDS011;44185;47.844;8.966;2022-12-05T13:14:14;7.80;;;3.58;;
58384;SDS011;44185;47.844;8.966;2022-12-05T13:16:44;7.13;;;3.75;;
58384;SDS011;44185;47.844;8.966;2022-12-05T13:19:18;7.93;;;4.60;;
58384;SDS011;44185;47.844;8.966;2022-12-05T13:21:49;8.45;;;4.05;;
58384;SDS011;44185;47.844;8.966;2022-12-05T13:24:16;8.65;;;4.18;;
58384;SDS011;44185;47.844;8.966;2022-12-05T13:26:47;8.52;;;4.13;;
58384;SDS011;44185;47.844;8.966;2022-12-05T13:29:17;9.27;;;4.10;;
58384;SDS011;44185;47.844;8.966;2022-12-05T13:31:45;6.47;;;3.47;;
58384;SDS011;44185;47.844;8.966;2022-12-05T13:37:17;6.80;;;3.47;;
58384;SDS011;44185;47.844;8.966;2022-12-05T13:39:48;5.45;;;3.22;;
58384;SDS011;44185;47.844;8.966;2022-12-05T13:42:20;6.78;;;4.40;;
58384;SDS011;44185;47.844;8.966;2022-12-05T13:44:48;7.13;;;4.15;;
58384;SDS011;44185;47.844;8.966;2022-12-05T13:47:21;10.30;;;4.77;;
58384;SDS011;44185;47.844;8.966;2022-12-05T13:49:54;7.43;;;4.60;;
58384;SDS011;44185;47.844;8.966;2022-12-05T13:52:28;8.90;;;4.28;;
58384;SDS011;44185;47.844;8.966;2022-12-05T13:54:56;10.52;;;5.10;;
58384;SDS011;44185;47.844;8.966;2022-12-05T14:03:08;8.70;;;4.30;;
58384;SDS011;44185;47.844;8.966;2022-12-05T14:05:41;7.97;;;4.38;;
58384;SDS011;44185;47.844;8.966;2022-12-05T14:11:17;7.90;;;3.90;;
58384;SDS011;44185;47.844;8.966;2022-12-05T14:13:43;6.95;;;4.03;;
58384;SDS011;44185;47.844;8.966;2022-12-05T14:25:09;7.20;;;3.60;;
58384;SDS011;44185;47.844;8.966;2022-12-05T14:27:45;8.40;;;4.22;;
58384;SDS011;44185;47.844;8.966;2022-12-05T14:30:21;12.43;;;5.30;;
58384;SDS011;44185;47.844;8.966;2022-12-05T14:35:17;5.38;;;3.75;;
58384;SDS011;44185;47.844;8.966;2022-12-05T14:37:50;6.80;;;3.85;;
58384;SDS011;44185;47.844;8.966;2022-12-05T14:40:19;7.53;;;3.90;;
58384;SDS011;44185;47.844;8.966;2022-12-05T14:42:52;7.50;;;4.25;;
58384;SDS011;44185;47.844;8.966;2022-12-05T14:45:25;8.32;;;3.78;;
58384;SDS011;44185;47.844;8.966;2022-12-05T14:47:54;6.90;;;3.85;;
58384;SDS011;44185;47.844;8.966;2022-12-05T14:50:22;7.28;;;4.40;;
58384;SDS011;44185;47.844;8.966;2022-12-05T14:53:13;7.45;;;4.28;;
58384;SDS011;44185;47.844;8.966;2022-12-05T14:55:44;8.15;;;4.15;;
58384;SDS011;44185;47.844;8.966;2022-12-05T14:58:11;8.57;;;4.32;;
58384;SDS011;44185;47.844;8.966;2022-12-05T15:00:42;8.48;;;4.30;;
58384;SDS011;44185;47.844;8.966;2022-12-05T15:03:09;6.53;;;3.88;;
58384;SDS011;44185;47.844;8.966;2022-12-05T15:05:43;6.78;;;3.95;;
58384;SDS011;44185;47.844;8.966;2022-12-05T15:08:09;9.15;;;4.03;;
58384;SDS011;44185;47.844;8.966;2022-12-05T15:10:39;7.22;;;3.97;;
58384;SDS011;44185;47.844;8.966;2022-12-05T15:13:09;7.55;;;4.10;;
58384;SDS011;44185;47.844;8.966;2022-12-05T15:15:40;6.97;;;4.03;;
58384;SDS011;44185;47.844;8.966;2022-12-05T15:18:08;6.78;;;3.70;;
58384;SDS011;44185;47.844;8.966;2022-12-05T15:20:44;6.10;;;3.88;;
58384;SDS011;44185;47.844;8.966;2022-12-05T15:26:10;6.80;;;3.72;;